Time;durP1;ratioP1;P1;durP2;ratioP2;P2;SDS_P1;SDS_P2;PMS_P1;PMS_P2;Temp;Humidity;BMP_temperature;BMP_pressure;BME280_temperature;BME280_humidity;BME280_pressure;Samples;Min_cycle;Max_cycle;Signal;HPM_P1;HPM_P2
2021/05/20 00:00:23;;;;;;;11.80;3.28;;;18.00;66.30;;;;;;5071957;28;20036;-56
2021/05/20 00:02:52;;;;;;;6.15;3.50;;;18.10;66.40;;;;;;5072414;28;20046;-60
2021/05/20 00:05:19;;;;;;;10.90;3.08;;;18.30;65.50;;;;;;5072481;28;20035;-58
2021/05/20 00:07:47;;;;;;;6.30;2.47;;;18.30;66.30;;;;;;5072699;28;20096;-59
2021/05/20 00:10:16;;;;;;;7.18;2.83;;;18.40;66.80;;;;;;5072174;28;20044;-54
2021/05/20 00:12:45;;;;;;;4.40;2.40;;;18.50;65.90;;;;;;5072385;28;20032;-55
2021/05/20 00:15:14;;;;;;;8.27;2.88;;;18.60;66.00;;;;;;5072057;28;20392;-57
2021/05/20 00:17:41;;;;;;;8.48;3.05;;;18.70;64.70;;;;;;5071508;28;20145;-55
2021/05/20 00:20:09;;;;;;;5.07;2.78;;;18.80;65.50;;;;;;5071795;28;20070;-56
2021/05/20 00:22:37;;;;;;;10.70;2.90;;;18.90;65.10;;;;;;5072075;28;20028;-60
2021/05/20 00:25:05;;;;;;;7.80;3.30;;;19.00;63.20;;;;;;5072242;28;20060;-63
2021/05/20 00:27:32;;;;;;;4.18;2.28;;;19.00;63.50;;;;;;5072333;28;20017;-61
2021/05/20 00:30:00;;;;;;;5.25;2.80;;;19.10;64.00;;;;;;5071838;28;20028;-63
2021/05/20 00:32:29;;;;;;;7.25;2.70;;;19.20;62.70;;;;;;5071971;28;20032;-55
2021/05/20 00:34:56;;;;;;;6.72;2.72;;;19.30;61.60;;;;;;5071644;28;20024;-56
2021/05/20 00:37:23;;;;;;;6.55;3.22;;;19.40;63.90;;;;;;5072047;28;20035;-62
2021/05/20 00:39:52;;;;;;;3.35;2.20;;;19.50;61.20;;;;;;5071702;28;20024;-52
2021/05/20 00:42:19;;;;;;;4.53;2.20;;;19.60;62.30;;;;;;5071761;28;20507;-57
2021/05/20 00:44:58;;;;;;;6.25;3.00;;;19.70;61.80;;;;;;5071183;28;20027;-53
2021/05/20 00:47:32;;;;;;;16.02;3.55;;;19.80;61.60;;;;;;5071746;28;20115;-58
2021/05/20 00:50:01;;;;;;;5.50;2.88;;;19.90;60.20;;;;;;5071668;28;20040;-59
2021/05/20 00:52:29;;;;;;;6.22;2.50;;;19.90;60.10;;;;;;5071468;28;20122;-56
2021/05/20 00:54:58;;;;;;;7.43;2.40;;;20.00;61.10;;;;;;5071578;28;20032;-51
2021/05/20 00:57:27;;;;;;;11.25;3.08;;;20.10;62.00;;;;;;5070927;28;20031;-56
2021/05/20 00:59:54;;;;;;;4.63;2.35;;;20.20;58.50;;;;;;5070084;28;20205;-63
2021/05/20 01:02:22;;;;;;;5.68;2.10;;;20.20;60.50;;;;;;5069770;28;20025;-60
2021/05/20 01:04:49;;;;;;;7.20;2.42;;;20.30;59.50;;;;;;5071821;28;20035;-58
2021/05/20 01:07:17;;;;;;;8.65;2.38;;;20.40;59.90;;;;;;5071782;28;20016;-59
2021/05/20 01:09:44;;;;;;;4.13;2.40;;;20.40;60.10;;;;;;5070063;28;20047;-60
2021/05/20 01:12:12;;;;;;;3.20;2.13;;;20.50;59.00;;;;;;5071244;28;20483;-57
2021/05/20 01:14:44;;;;;;;9.70;2.25;;;20.50;59.90;;;;;;5071221;28;20093;-55
2021/05/20 01:17:15;;;;;;;6.50;2.88;;;20.60;58.40;;;;;;5070790;28;20029;-55
2021/05/20 01:19:45;;;;;;;4.57;2.42;;;20.60;56.30;;;;;;5071343;28;20073;-54
2021/05/20 01:22:16;;;;;;;3.80;2.08;;;20.70;57.80;;;;;;5071567;28;20033;-61
2021/05/20 01:24:44;;;;;;;8.52;2.22;;;20.70;59.70;;;;;;5071362;28;20032;-61
2021/05/20 01:27:13;;;;;;;3.10;1.90;;;20.70;55.20;;;;;;5071608;28;20453;-58
2021/05/20 01:29:45;;;;;;;5.75;1.92;;;20.50;59.00;;;;;;5071506;28;20059;-54
2021/05/20 01:32:13;;;;;;;4.30;2.35;;;20.60;56.90;;;;;;5070932;28;20024;-61
2021/05/20 01:34:40;;;;;;;7.57;2.38;;;20.50;59.60;;;;;;5071368;28;20039;-59
2021/05/20 01:37:10;;;;;;;3.90;2.08;;;20.30;61.80;;;;;;5071196;28;20029;-59
2021/05/20 01:39:38;;;;;;;3.35;2.03;;;20.30;58.50;;;;;;5070930;28;20032;-55
2021/05/20 01:42:05;;;;;;;7.60;2.67;;;20.20;60.20;;;;;;5070805;28;20104;-55
2021/05/20 01:44:33;;;;;;;4.88;2.47;;;20.30;60.60;;;;;;5070759;28;20028;-59
2021/05/20 01:47:01;;;;;;;4.00;2.00;;;20.20;59.30;;;;;;5071116;28;20082;-58
2021/05/20 01:49:28;;;;;;;6.78;2.38;;;20.00;63.60;;;;;;5071096;28;20056;-56
2021/05/20 01:51:55;;;;;;;4.50;2.50;;;20.00;63.10;;;;;;5070144;28;20352;-62
2021/05/20 01:54:23;;;;;;;8.55;3.13;;;19.90;60.60;;;;;;5070793;28;20033;-61
2021/05/20 01:56:50;;;;;;;5.80;1.67;;;19.90;62.40;;;;;;5070925;28;20024;-58
2021/05/20 01:59:18;;;;;;;5.07;2.53;;;19.90;61.50;;;;;;5064772;28;20024;-51
2021/05/20 02:01:46;;;;;;;5.20;2.95;;;20.10;63.60;;;;;;5068170;28;20398;-55
2021/05/20 02:04:13;;;;;;;7.13;4.10;;;20.20;61.40;;;;;;5069870;28;20020;-54
2021/05/20 02:06:40;;;;;;;9.27;4.32;;;20.30;60.80;;;;;;5066834;28;20374;-58
2021/05/20 02:09:08;;;;;;;9.82;4.97;;;20.40;58.20;;;;;;5070305;28;20025;-53
2021/05/20 02:11:36;;;;;;;8.90;4.18;;;20.40;59.20;;;;;;5068899;28;20070;-56
2021/05/20 02:14:04;;;;;;;11.45;3.97;;;20.20;51.10;;;;;;5072591;28;20024;-60
2021/05/20 02:16:34;;;;;;;12.82;5.88;;;20.10;56.60;;;;;;5070477;28;20494;-63
2021/05/20 02:19:02;;;;;;;15.75;5.63;;;20.00;54.30;;;;;;5071785;28;20025;-54
2021/05/20 02:21:29;;;;;;;16.83;6.15;;;20.10;55.80;;;;;;5070855;28;20113;-62
2021/05/20 02:23:57;;;;;;;12.80;8.23;;;19.90;53.50;;;;;;5072066;28;20095;-55
2021/05/20 02:26:24;;;;;;;11.00;6.50;;;19.90;61.30;;;;;;5067643;28;20506;-57
2021/05/20 02:28:51;;;;;;;19.50;3.55;;;20.00;54.50;;;;;;5070947;28;20021;-56
2021/05/20 02:31:19;;;;;;;14.70;7.88;;;20.10;51.00;;;;;;5072195;28;20103;-53
2021/05/20 02:33:46;;;;;;;12.70;3.55;;;20.40;60.20;;;;;;5071883;28;20032;-52
2021/05/20 02:36:13;;;;;;;13.35;9.90;;;20.50;51.30;;;;;;5067875;28;20134;-49
2021/05/20 02:38:44;;;;;;;11.20;6.25;;;20.60;59.80;;;;;;5072241;28;20040;-52
2021/05/20 02:41:11;;;;;;;12.63;10.32;;;20.80;52.10;;;;;;5071894;28;20080;-59
2021/05/20 02:43:39;;;;;;;7.68;6.32;;;20.80;57.80;;;;;;5071448;28;20454;-56
2021/05/20 02:46:06;;;;;;;11.75;8.93;;;20.80;54.50;;;;;;5068510;28;20032;-55
2021/05/20 02:48:33;;;;;;;9.43;6.90;;;21.00;54.90;;;;;;5066551;28;20027;-56
2021/05/20 02:51:01;;;;;;;13.55;6.78;;;21.10;56.50;;;;;;5071204;28;20025;-54
2021/05/20 02:53:28;;;;;;;9.85;4.68;;;21.10;57.00;;;;;;5074995;28;20479;-54
2021/05/20 02:55:55;;;;;;;11.68;8.82;;;21.50;51.70;;;;;;5068405;28;20035;-53
2021/05/20 02:58:24;;;;;;;12.80;9.90;;;21.30;57.60;;;;;;5071006;28;20448;-58
2021/05/20 03:00:51;;;;;;;10.23;8.48;;;21.20;58.70;;;;;;5070520;28;20048;-55
2021/05/20 03:03:18;;;;;;;9.68;8.02;;;21.40;57.90;;;;;;5070210;28;20364;-51
2021/05/20 03:05:46;;;;;;;10.82;9.68;;;21.50;56.80;;;;;;5067781;28;20111;-53
2021/05/20 03:08:15;;;;;;;12.85;6.75;;;21.10;58.70;;;;;;5068715;28;20540;-54
2021/05/20 03:10:43;;;;;;;11.82;8.35;;;21.40;55.30;;;;;;5071009;28;20166;-57
2021/05/20 03:13:10;;;;;;;8.43;5.20;;;21.30;58.30;;;;;;5071415;28;20078;-56
2021/05/20 03:15:37;;;;;;;8.20;6.05;;;21.40;58.20;;;;;;5065434;28;20348;-53
2021/05/20 03:18:05;;;;;;;13.57;5.60;;;21.30;57.70;;;;;;5068516;28;20084;-53
2021/05/20 03:20:33;;;;;;;11.80;4.28;;;21.50;55.70;;;;;;5072323;28;20033;-58
2021/05/20 03:23:00;;;;;;;12.25;5.57;;;21.30;56.90;;;;;;5071124;28;20024;-56
2021/05/20 03:25:27;;;;;;;8.73;4.57;;;21.20;57.70;;;;;;5067260;28;20112;-57
2021/05/20 03:27:55;;;;;;;7.88;5.25;;;21.40;50.90;;;;;;5070844;28;20032;-51
2021/05/20 03:30:23;;;;;;;8.68;2.10;;;21.10;58.40;;;;;;5070213;28;20042;-54
2021/05/20 03:32:50;;;;;;;10.70;4.38;;;21.40;40.70;;;;;;5071030;28;20099;-53
2021/05/20 03:35:18;;;;;;;13.35;4.03;;;21.60;54.80;;;;;;5066769;28;20071;-53
2021/05/20 03:37:45;;;;;;;11.48;3.72;;;21.60;42.30;;;;;;5070980;28;20490;-54
2021/05/20 03:40:12;;;;;;;7.25;3.47;;;21.90;47.10;;;;;;5062957;28;20051;-52
2021/05/20 03:42:40;;;;;;;9.10;4.10;;;21.70;45.10;;;;;;5072053;28;20078;-57
2021/05/20 03:45:08;;;;;;;4.88;2.67;;;21.60;53.70;;;;;;5070156;28;20028;-53
2021/05/20 03:47:38;;;;;;;12.15;3.63;;;21.70;42.30;;;;;;5071248;28;20475;-51
2021/05/20 03:50:06;;;;;;;11.75;2.97;;;21.40;42.50;;;;;;5071402;28;20028;-58
2021/05/20 03:52:33;;;;;;;4.25;2.15;;;21.20;45.70;;;;;;5069402;28;20024;-55
2021/05/20 03:55:00;;;;;;;5.72;2.00;;;21.20;49.70;;;;;;5071031;28;20453;-50
2021/05/20 03:57:28;;;;;;;11.48;2.70;;;21.20;46.40;;;;;;5071134;28;20165;-54
2021/05/20 03:59:55;;;;;;;5.18;1.92;;;21.00;54.10;;;;;;5070582;28;20040;-55
2021/05/20 04:02:22;;;;;;;9.43;4.13;;;21.00;52.10;;;;;;5067248;28;20133;-56
2021/05/20 04:04:50;;;;;;;4.38;2.90;;;21.10;56.80;;;;;;5070130;28;20031;-48
2021/05/20 04:07:17;;;;;;;8.07;2.92;;;21.20;51.90;;;;;;5071336;28;20032;-51
2021/05/20 04:09:45;;;;;;;4.00;2.75;;;21.50;56.60;;;;;;5071875;28;20055;-52
2021/05/20 04:12:12;;;;;;;7.00;2.58;;;22.00;55.90;;;;;;5071898;28;20533;-55
2021/05/20 04:14:40;;;;;;;5.88;2.83;;;22.30;56.30;;;;;;5068597;28;20135;-54
2021/05/20 04:17:07;;;;;;;4.88;2.40;;;22.60;55.20;;;;;;5071980;28;20027;-51
2021/05/20 04:19:35;;;;;;;4.75;2.92;;;22.90;54.70;;;;;;5068264;28;20412;-54
2021/05/20 04:22:02;;;;;;;7.72;2.45;;;23.10;55.00;;;;;;5072031;28;20059;-57
2021/05/20 04:24:29;;;;;;;3.75;2.67;;;23.30;54.20;;;;;;5071391;28;20035;-60
2021/05/20 04:26:57;;;;;;;4.40;2.28;;;23.40;53.50;;;;;;5071875;28;20039;-58
2021/05/20 04:29:24;;;;;;;3.88;2.78;;;23.60;53.00;;;;;;5071124;28;20055;-57
2021/05/20 04:31:52;;;;;;;5.95;2.47;;;23.70;51.80;;;;;;5069407;28;20499;-61
2021/05/20 04:34:19;;;;;;;3.72;2.60;;;23.40;52.10;;;;;;5071576;28;20028;-56
2021/05/20 04:36:46;;;;;;;6.00;2.20;;;23.30;53.80;;;;;;5071870;28;20386;-58
2021/05/20 04:39:14;;;;;;;5.13;2.10;;;23.20;54.10;;;;;;5072044;28;20013;-56
2021/05/20 04:41:42;;;;;;;3.65;2.38;;;23.20;54.20;;;;;;5071406;28;20042;-56
2021/05/20 04:44:09;;;;;;;8.18;2.38;;;23.20;53.60;;;;;;5071423;28;20124;-62
2021/05/20 04:46:37;;;;;;;3.20;2.00;;;23.00;53.40;;;;;;5071726;28;20082;-52
2021/05/20 04:49:11;;;;;;;5.57;2.45;;;22.90;55.60;;;;;;5071848;28;20031;-58
2021/05/20 04:51:44;;;;;;;5.07;2.20;;;23.00;55.80;;;;;;5068462;28;20154;-56
2021/05/20 04:54:12;;;;;;;2.58;2.03;;;23.10;52.00;;;;;;5071267;28;20423;-61
2021/05/20 04:56:39;;;;;;;4.80;2.40;;;23.10;55.90;;;;;;5069983;28;20067;-57
2021/05/20 04:59:07;;;;;;;4.32;2.28;;;23.20;54.30;;;;;;5071550;28;20025;-56
2021/05/20 05:01:34;;;;;;;6.07;2.22;;;23.40;53.20;;;;;;5064375;28;20044;-51
2021/05/20 05:04:02;;;;;;;4.15;2.78;;;23.40;54.80;;;;;;5070386;28;20021;-56
2021/05/20 05:06:29;;;;;;;3.78;3.00;;;23.60;53.30;;;;;;5069938;28;20028;-52
2021/05/20 05:08:56;;;;;;;3.97;2.63;;;23.50;54.50;;;;;;5072766;28;20355;-50
2021/05/20 05:11:24;;;;;;;4.45;3.10;;;23.60;54.50;;;;;;5068421;28;20048;-55
2021/05/20 05:13:52;;;;;;;4.93;3.20;;;23.70;54.40;;;;;;5070453;28;20039;-53
2021/05/20 05:16:19;;;;;;;4.18;3.40;;;23.80;53.80;;;;;;5070314;28;20028;-57
2021/05/20 05:18:47;;;;;;;5.00;3.78;;;23.80;53.90;;;;;;5070497;28;20025;-60
2021/05/20 05:21:14;;;;;;;5.55;5.05;;;23.90;53.70;;;;;;5067422;28;20869;-53
2021/05/20 05:23:41;;;;;;;6.63;4.60;;;23.90;53.60;;;;;;5070342;28;20040;-52
2021/05/20 05:26:09;;;;;;;5.40;4.45;;;24.00;53.90;;;;;;5070151;28;20021;-57
2021/05/20 05:28:36;;;;;;;7.65;5.18;;;24.00;53.90;;;;;;5069810;28;20024;-56
2021/05/20 05:31:04;;;;;;;6.82;5.32;;;24.10;53.80;;;;;;5069137;28;20103;-56
2021/05/20 05:33:31;;;;;;;5.05;4.25;;;24.00;53.40;;;;;;5070257;28;20024;-53
2021/05/20 05:35:59;;;;;;;7.75;6.82;;;24.00;53.40;;;;;;5070141;28;20025;-55
2021/05/20 05:38:26;;;;;;;6.72;5.35;;;23.90;53.40;;;;;;5068327;28;20069;-56
2021/05/20 05:40:54;;;;;;;10.38;9.50;;;23.80;51.20;;;;;;5068549;28;20111;-52
2021/05/20 05:43:21;;;;;;;7.47;6.63;;;23.70;54.00;;;;;;5070621;28;20451;-53
2021/05/20 05:45:48;;;;;;;11.02;10.13;;;23.50;54.20;;;;;;5073722;28;20040;-48
2021/05/20 05:48:16;;;;;;;6.75;6.07;;;23.40;54.40;;;;;;5072872;28;20394;-53
2021/05/20 05:50:44;;;;;;;6.68;5.75;;;23.10;54.60;;;;;;5073499;28;20036;-55
2021/05/20 05:53:12;;;;;;;6.75;6.13;;;22.90;55.00;;;;;;5072740;28;20021;-54
2021/05/20 05:55:39;;;;;;;6.18;5.68;;;22.80;53.10;;;;;;5073332;28;20028;-52
2021/05/20 05:58:07;;;;;;;6.18;5.35;;;22.60;55.00;;;;;;5076473;28;20065;-54
2021/05/20 06:00:34;;;;;;;7.15;6.22;;;22.40;55.20;;;;;;5071312;28;20086;-58
2021/05/20 06:03:01;;;;;;;8.57;7.28;;;22.30;55.20;;;;;;5072578;28;20146;-53
2021/05/20 06:05:29;;;;;;;10.07;7.85;;;22.10;57.50;;;;;;5073182;28;20067;-59
2021/05/20 06:07:56;;;;;;;7.35;5.70;;;21.90;56.80;;;;;;5073489;28;20029;-57
2021/05/20 06:10:24;;;;;;;9.02;6.55;;;21.80;57.50;;;;;;5073125;28;20098;-58
2021/05/20 06:12:51;;;;;;;7.40;6.70;;;21.60;57.60;;;;;;5069163;28;20069;-52
2021/05/20 06:15:19;;;;;;;7.93;6.78;;;21.50;59.50;;;;;;5071255;28;20033;-59
2021/05/20 06:17:46;;;;;;;6.65;5.95;;;21.40;59.80;;;;;;5070540;28;20451;-51
2021/05/20 06:20:13;;;;;;;7.10;6.40;;;21.20;60.10;;;;;;5073229;28;20032;-58
2021/05/20 06:22:41;;;;;;;10.98;5.97;;;21.10;60.50;;;;;;5073759;28;20036;-55
2021/05/20 06:25:08;;;;;;;8.00;5.97;;;21.00;59.00;;;;;;5067008;28;21081;-51
2021/05/20 06:27:36;;;;;;;6.68;5.88;;;20.70;60.80;;;;;;5073306;28;20028;-56
2021/05/20 06:30:04;;;;;;;7.57;4.32;;;20.60;62.60;;;;;;5073998;28;20059;-54
2021/05/20 06:32:32;;;;;;;7.55;4.13;;;20.40;54.90;;;;;;5074078;28;20036;-55
2021/05/20 06:34:59;;;;;;;9.75;5.28;;;20.30;54.30;;;;;;5073586;28;20107;-57
2021/05/20 06:37:27;;;;;;;5.65;4.47;;;20.30;61.00;;;;;;5074056;28;20024;-59
2021/05/20 06:39:54;;;;;;;11.68;5.40;;;20.20;61.30;;;;;;5073851;28;20107;-52
2021/05/20 06:42:21;;;;;;;7.85;5.40;;;20.10;58.90;;;;;;5073703;28;20428;-56
2021/05/20 06:44:49;;;;;;;5.50;4.72;;;20.00;64.30;;;;;;5073985;28;20394;-55
2021/05/20 06:47:16;;;;;;;8.18;5.05;;;19.90;64.70;;;;;;5073619;28;20035;-53
2021/05/20 06:49:44;;;;;;;8.77;4.65;;;19.90;62.80;;;;;;5073197;28;20128;-56
2021/05/20 06:52:11;;;;;;;8.75;4.53;;;19.80;64.60;;;;;;5073616;28;20410;-53
2021/05/20 06:54:38;;;;;;;6.30;4.93;;;19.80;63.60;;;;;;5072721;28;20119;-53
2021/05/20 06:57:20;;;;;;;6.03;4.88;;;19.80;63.20;;;;;;5073670;28;20013;-58
2021/05/20 06:59:58;;;;;;;6.00;4.43;;;19.70;65.00;;;;;;5073182;28;20028;-58
2021/05/20 07:02:30;;;;;;;7.15;4.95;;;19.70;65.90;;;;;;5073371;28;20064;-56
2021/05/20 07:04:57;;;;;;;8.82;4.95;;;19.70;65.50;;;;;;5073575;28;20025;-52
2021/05/20 07:07:26;;;;;;;5.95;4.35;;;19.60;65.00;;;;;;5073885;28;20033;-53
2021/05/20 07:09:53;;;;;;;8.15;4.85;;;19.50;65.00;;;;;;5073036;28;20374;-51
2021/05/20 07:12:21;;;;;;;5.78;4.45;;;19.50;64.70;;;;;;5073426;28;20141;-58
2021/05/20 07:14:48;;;;;;;10.73;4.80;;;19.50;65.70;;;;;;5073358;28;20040;-56
2021/05/20 07:17:15;;;;;;;9.45;5.53;;;19.40;62.70;;;;;;5073133;28;20387;-56
2021/05/20 07:19:43;;;;;;;7.38;4.45;;;19.40;61.40;;;;;;5073043;28;20062;-55
2021/05/20 07:22:10;;;;;;;7.07;5.40;;;19.30;65.30;;;;;;5072858;28;20040;-54
2021/05/20 07:24:37;;;;;;;9.30;4.35;;;19.30;65.90;;;;;;5072554;28;20044;-55
2021/05/20 07:27:05;;;;;;;15.60;5.82;;;19.30;66.70;;;;;;5073450;28;20029;-58
2021/05/20 07:29:32;;;;;;;7.20;4.13;;;19.30;61.10;;;;;;5072284;28;20105;-59
2021/05/20 07:32:00;;;;;;;10.13;4.55;;;19.30;60.60;;;;;;5072656;28;20029;-54
2021/05/20 07:34:30;;;;;;;7.20;4.20;;;19.30;65.90;;;;;;5072583;28;20039;-42
2021/05/20 07:36:57;;;;;;;6.50;3.90;;;19.30;66.90;;;;;;5072394;28;20136;-51
2021/05/20 07:39:24;;;;;;;9.30;4.43;;;19.40;66.20;;;;;;5071646;28;20070;-46
2021/05/20 07:41:51;;;;;;;20.58;6.60;;;19.40;66.20;;;;;;5072001;28;20107;-42
2021/05/20 07:44:19;;;;;;;13.60;9.98;;;19.40;65.10;;;;;;5072361;28;20050;-59
2021/05/20 07:46:48;;;;;;;11.57;5.85;;;19.40;65.00;;;;;;5072507;28;20036;-46
2021/05/20 07:49:15;;;;;;;9.43;7.55;;;19.40;65.50;;;;;;5072293;28;20032;-52
2021/05/20 07:51:42;;;;;;;9.68;7.55;;;19.40;65.60;;;;;;5071924;28;20134;-53
2021/05/20 07:54:10;;;;;;;7.63;6.93;;;19.40;64.60;;;;;;5072143;28;20124;-56
2021/05/20 07:56:37;;;;;;;10.88;8.65;;;19.30;63.90;;;;;;5071753;28;20013;-52
2021/05/20 07:59:05;;;;;;;9.95;7.43;;;19.30;65.40;;;;;;5072201;28;20119;-54
2021/05/20 08:01:34;;;;;;;11.98;7.05;;;19.30;63.40;;;;;;5072326;28;20455;-55
2021/05/20 08:04:11;;;;;;;10.52;9.45;;;19.30;64.90;;;;;;5072216;28;20031;-57
2021/05/20 08:06:42;;;;;;;11.35;9.85;;;19.30;65.20;;;;;;5071812;28;20020;-55
2021/05/20 08:09:22;;;;;;;9.35;8.45;;;19.30;65.40;;;;;;5072083;28;20479;-57
2021/05/20 08:11:50;;;;;;;14.35;9.32;;;19.30;64.80;;;;;;5071693;28;20074;-43
2021/05/20 08:14:17;;;;;;;15.48;13.98;;;19.30;64.90;;;;;;5071779;28;20433;-47
2021/05/20 08:16:45;;;;;;;9.20;8.27;;;19.30;65.30;;;;;;5071940;28;20058;-47
2021/05/20 08:19:12;;;;;;;14.65;13.23;;;19.30;65.20;;;;;;5071625;28;20440;-54
2021/05/20 08:21:40;;;;;;;11.63;8.75;;;19.30;64.30;;;;;;5071321;28;20043;-53
2021/05/20 08:24:08;;;;;;;19.65;9.40;;;19.20;66.60;;;;;;5071386;28;20024;-45
2021/05/20 08:26:36;;;;;;;13.45;7.45;;;19.20;63.90;;;;;;5071743;28;20123;-47
2021/05/20 08:29:04;;;;;;;11.23;7.47;;;19.20;63.20;;;;;;5071825;28;20024;-52
2021/05/20 08:31:32;;;;;;;6.75;5.22;;;19.20;62.50;;;;;;5070453;28;20478;-51
2021/05/20 08:34:00;;;;;;;10.45;6.03;;;19.20;63.70;;;;;;5070546;28;20085;-47
2021/05/20 08:36:27;;;;;;;9.07;5.55;;;19.20;67.60;;;;;;5071295;28;20032;-54
2021/05/20 08:38:55;;;;;;;15.32;5.78;;;19.20;68.90;;;;;;5070348;28;20387;-57
2021/05/20 08:41:22;;;;;;;7.40;4.50;;;19.20;67.70;;;;;;5071963;28;20079;-59
2021/05/20 08:43:50;;;;;;;9.25;4.03;;;19.20;71.20;;;;;;5072062;28;20122;-63
2021/05/20 08:46:25;;;;;;;7.55;4.00;;;19.20;66.60;;;;;;5070747;28;20016;-61
2021/05/20 08:48:53;;;;;;;24.15;5.07;;;19.10;65.60;;;;;;5070635;28;20105;-63
2021/05/20 08:51:20;;;;;;;16.27;4.90;;;19.10;67.70;;;;;;5072051;28;20028;-62
2021/05/20 08:53:48;;;;;;;23.23;5.47;;;19.00;70.20;;;;;;5071940;28;20082;-62
2021/05/20 08:56:17;;;;;;;29.05;4.82;;;19.00;69.20;;;;;;5071086;28;20028;-59
2021/05/20 08:58:44;;;;;;;20.33;5.63;;;19.00;71.10;;;;;;5071187;28;20027;-64
2021/05/20 09:01:31;;;;;;;17.48;4.80;;;19.00;71.60;;;;;;5071468;28;20533;-62
2021/05/20 09:04:00;;;;;;;11.93;5.78;;;19.00;72.10;;;;;;5071906;28;20039;-61
2021/05/20 09:06:52;;;;;;;10.05;4.68;;;19.00;72.90;;;;;;5071804;28;20463;-61
2021/05/20 09:09:25;;;;;;;;;;;19.00;74.10;;;;;;5072113;28;20047;-59
2021/05/20 09:11:58;;;;;;;15.07;5.38;;;19.00;72.30;;;;;;5070838;28;20427;-64
2021/05/20 09:14:35;;;;;;;10.90;4.00;;;19.00;71.80;;;;;;5071415;28;20025;-60
2021/05/20 09:17:17;;;;;;;17.98;5.57;;;19.00;70.20;;;;;;5062708;28;20043;-56
2021/05/20 09:19:51;;;;;;;16.05;4.35;;;19.00;72.50;;;;;;5070968;28;20024;-59
2021/05/20 09:22:19;;;;;;;17.23;4.60;;;19.00;72.60;;;;;;5070421;28;20081;-65
2021/05/20 09:24:55;;;;;;;14.07;4.70;;;19.00;70.60;;;;;;5071429;28;20052;-61
2021/05/20 09:27:42;;;;;;;15.45;5.75;;;18.90;69.40;;;;;;5067006;28;20188;-68
2021/05/20 09:30:18;;;;;;;14.60;6.20;;;19.00;70.90;;;;;;5069604;28;20458;-65
2021/05/20 09:33:00;;;;;;;34.65;5.82;;;18.90;69.60;;;;;;5067632;28;20040;-63
2021/05/20 09:35:31;;;;;;;32.17;7.50;;;19.00;73.10;;;;;;5070518;28;20455;-64
2021/05/20 09:38:01;;;;;;;22.40;5.18;;;19.00;68.70;;;;;;5064377;28;20025;-56
2021/05/20 09:40:43;;;;;;;18.25;6.28;;;19.00;69.70;;;;;;5068078;28;20439;-62
2021/05/20 09:43:21;;;;;;;20.73;5.80;;;19.00;69.50;;;;;;5070132;28;20052;-59
2021/05/20 09:45:53;;;;;;;14.75;4.72;;;18.90;68.80;;;;;;5072758;28;20130;-58
2021/05/20 09:48:26;;;;;;;;;;;18.80;64.80;;;;;;5073378;28;20426;-62
2021/05/20 09:50:58;;;;;;;20.50;7.32;;;18.70;67.00;;;;;;5072631;28;19966;-64
2021/05/20 09:53:28;;;;;;;17.83;5.57;;;18.70;66.60;;;;;;5074202;28;20070;-62
2021/05/20 09:55:57;;;;;;;17.42;6.32;;;18.60;65.90;;;;;;5075236;28;20036;-63
2021/05/20 09:58:29;;;;;;;26.58;6.47;;;18.60;67.50;;;;;;5073832;28;20126;-63
2021/05/20 10:01:01;;;;;;;13.13;6.35;;;18.60;67.60;;;;;;5075278;28;20494;-59
2021/05/20 10:03:34;;;;;;;18.88;6.55;;;18.50;67.10;;;;;;5075224;28;20024;-66
2021/05/20 10:06:04;;;;;;;17.63;6.18;;;18.50;69.70;;;;;;5075077;28;20043;-60
2021/05/20 10:08:32;;;;;;;21.15;6.93;;;18.50;69.30;;;;;;5074800;28;20426;-64
2021/05/20 10:11:04;;;;;;;20.60;7.35;;;18.50;70.80;;;;;;5074316;28;20048;-65
2021/05/20 10:13:32;;;;;;;16.10;6.72;;;18.50;71.00;;;;;;5072521;28;20035;-60
2021/05/20 10:16:01;;;;;;;25.98;7.45;;;18.50;71.00;;;;;;5073333;28;20364;-59
2021/05/20 10:18:29;;;;;;;13.52;7.35;;;18.50;71.60;;;;;;5072102;28;20051;-62
2021/05/20 10:21:04;;;;;;;18.13;7.35;;;18.50;71.00;;;;;;5064784;28;20040;-61
2021/05/20 10:23:32;;;;;;;17.30;7.43;;;18.50;71.10;;;;;;5067227;28;20027;-62
2021/05/20 10:26:01;;;;;;;16.83;6.93;;;18.50;70.20;;;;;;5069424;28;20032;-56
2021/05/20 10:28:29;;;;;;;15.73;6.70;;;18.40;69.80;;;;;;5068544;28;20052;-59
2021/05/20 10:30:57;;;;;;;17.17;6.85;;;18.40;69.00;;;;;;5068619;28;20031;-60
2021/05/20 10:33:29;;;;;;;33.92;7.60;;;18.40;70.10;;;;;;5070749;28;20020;-58
2021/05/20 10:35:58;;;;;;;175.38;124.30;;;18.40;70.10;;;;;;5069999;28;20032;-51
2021/05/20 10:38:29;;;;;;;39.13;26.83;;;18.40;70.10;;;;;;5069221;28;20067;-66
2021/05/20 10:41:26;;;;;;;31.63;14.55;;;18.40;71.70;;;;;;5070740;28;20484;-62
2021/05/20 10:44:09;;;;;;;32.58;16.95;;;18.40;69.80;;;;;;5067273;28;20106;-57
2021/05/20 10:47:08;;;;;;;21.08;10.15;;;18.40;66.90;;;;;;5066334;28;20099;-51
2021/05/20 10:49:51;;;;;;;19.13;7.85;;;18.30;67.50;;;;;;5014098;28;20028;-51
2021/05/20 10:52:39;;;;;;;13.18;8.18;;;18.30;69.80;;;;;;5070430;28;20028;-56
2021/05/20 10:55:09;;;;;;;21.25;10.00;;;18.30;68.90;;;;;;5068950;28;20415;-49
2021/05/20 10:58:01;;;;;;;18.88;10.93;;;18.30;68.20;;;;;;5065709;28;20017;-53
2021/05/20 11:00:41;;;;;;;24.60;11.50;;;18.20;69.50;;;;;;5066964;28;20068;-56
2021/05/20 11:03:10;;;;;;;18.67;12.23;;;18.20;69.60;;;;;;5070284;28;20032;-58
2021/05/20 11:05:44;;;;;;;22.08;11.80;;;18.20;70.60;;;;;;5070296;28;20130;-52
2021/05/20 11:08:31;;;;;;;20.75;14.50;;;18.20;69.40;;;;;;5065595;28;20554;-54
2021/05/20 11:11:01;;;;;;;30.08;14.45;;;18.20;70.30;;;;;;4988478;28;2335179;-53
2021/05/20 11:13:39;;;;;;;19.63;15.98;;;18.20;68.80;;;;;;5069272;28;20035;-48
2021/05/20 11:16:20;;;;;;;27.40;15.27;;;18.20;66.90;;;;;;5072102;28;20016;-57
2021/05/20 11:18:49;;;;;;;18.65;16.55;;;18.10;69.00;;;;;;5069826;28;20074;-56
2021/05/20 11:21:17;;;;;;;24.35;18.30;;;18.10;68.90;;;;;;5069814;28;20132;-54
2021/05/20 11:23:45;;;;;;;25.83;17.92;;;18.00;69.50;;;;;;5071135;28;20016;-57
2021/05/20 11:26:16;;;;;;;22.95;17.30;;;18.10;69.20;;;;;;5067202;28;20031;-53
2021/05/20 11:29:01;;;;;;;25.35;19.33;;;18.00;69.40;;;;;;5070122;28;20099;-55
2021/05/20 11:31:28;;;;;;;29.50;20.83;;;18.00;69.80;;;;;;5071466;28;20039;-53
2021/05/20 11:34:59;;;;;;;24.05;18.17;;;18.00;69.50;;;;;;5071398;28;20028;-53
2021/05/20 11:36:53;;;;;;;25.10;20.83;;;18.00;67.40;;;;;;5065125;28;20044;-59
2021/05/20 11:39:22;;;;;;;29.13;20.13;;;18.00;68.90;;;;;;5072778;28;20320;-59
2021/05/20 11:41:50;;;;;;;24.67;16.80;;;17.90;69.40;;;;;;5072103;28;20067;-59
2021/05/20 11:44:25;;;;;;;21.52;18.00;;;18.00;68.60;;;;;;5073274;28;20029;-58
2021/05/20 11:47:12;;;;;;;21.48;15.40;;;17.90;70.00;;;;;;5073593;28;20031;-59
2021/05/20 11:49:42;;;;;;;21.20;14.95;;;17.90;69.60;;;;;;5072971;28;20040;-59
2021/05/20 11:52:12;;;;;;;19.27;15.38;;;17.90;69.50;;;;;;5072928;28;20051;-60
2021/05/20 11:54:45;;;;;;;19.85;15.27;;;17.80;69.60;;;;;;5072449;28;20037;-58
2021/05/20 11:57:14;;;;;;;22.30;15.02;;;17.80;69.60;;;;;;5072954;28;20035;-58
2021/05/20 11:59:53;;;;;;;19.67;13.90;;;17.80;69.50;;;;;;5072909;28;20020;-60
2021/05/20 12:02:24;;;;;;;15.82;13.10;;;17.80;69.00;;;;;;5071807;28;20071;-59
2021/05/20 12:05:12;;;;;;;17.05;13.23;;;17.70;69.70;;;;;;5072774;28;20419;-62
2021/05/20 12:07:41;;;;;;;18.40;13.20;;;17.70;69.70;;;;;;5072713;28;20021;-62
2021/05/20 12:10:14;;;;;;;17.27;13.60;;;17.70;69.40;;;;;;5072420;28;20055;-60
2021/05/20 12:12:49;;;;;;;22.15;12.68;;;17.70;69.60;;;;;;5072527;28;20120;-62
2021/05/20 12:15:18;;;;;;;20.25;13.70;;;17.60;70.00;;;;;;5072571;28;20041;-63
2021/05/20 12:17:47;;;;;;;15.20;12.63;;;17.60;70.20;;;;;;5071979;28;20078;-61
2021/05/20 12:20:16;;;;;;;19.48;12.82;;;17.60;70.20;;;;;;5072562;28;20111;-61
2021/05/20 12:22:45;;;;;;;13.70;11.80;;;17.60;70.60;;;;;;5071958;28;20056;-61
2021/05/20 12:25:23;;;;;;;14.35;11.65;;;17.50;70.40;;;;;;5070731;28;20024;-51
2021/05/20 12:27:56;;;;;;;16.30;12.00;;;17.50;70.70;;;;;;5072190;28;20459;-56
2021/05/20 12:30:29;;;;;;;15.35;11.13;;;17.50;70.80;;;;;;5071988;28;20025;-54
2021/05/20 12:33:07;;;;;;;15.65;11.55;;;17.50;71.00;;;;;;5072804;28;20017;-59
2021/05/20 12:35:44;;;;;;;19.50;10.13;;;17.40;70.70;;;;;;5072762;28;20112;-56
2021/05/20 12:38:12;;;;;;;16.60;11.63;;;17.40;70.80;;;;;;5072931;28;20029;-53
2021/05/20 12:41:01;;;;;;;12.32;10.88;;;17.40;71.00;;;;;;5072586;28;20033;-57
2021/05/20 12:43:35;;;;;;;12.27;10.40;;;17.40;71.30;;;;;;5072717;28;20099;-57
2021/05/20 12:46:17;;;;;;;14.73;10.32;;;17.30;71.30;;;;;;5072567;28;20036;-60
2021/05/20 12:48:57;;;;;;;14.23;10.05;;;17.30;71.50;;;;;;5072166;28;20099;-54
2021/05/20 12:51:26;;;;;;;16.08;10.60;;;17.30;71.60;;;;;;5072430;28;20062;-59
2021/05/20 12:53:58;;;;;;;12.45;10.25;;;17.30;71.60;;;;;;5072427;28;20051;-54